Pine Cliff, Utah
Current Conditions -  °F | °C
As of 7:08 AM on Monday 22 Dec 2014 (Local Time) from KEVW Reporting Station
Light Snow Light Snow  
Wind Chill: 20°   Ceiling: 800
Heat Index: 30°   Visibility: 1.5mi
Dew Point: 29°   Wind: 13mph
Humidity: 96%   Direction: 250°WSW
Pressure: 29.91"   Gusts: NA
Location:  40.9431°N, 111.212°W
Report Text: KEVW 221408Z AUTO 25011KT 1 1/2SM -SN BR OVC008 M01/M02 A2991 RMK AO2 P0000 T10111017
Loading
Personal Weather Stations






























Interactive Weather Map New forecast layout! Learn more

10-Day Weather Forecast

Advertisements
Track Severe Weather on mobile